sensor_id;sensor_type;location;lat;lon;timestamp;P1;durP1;ratioP1;P2;durP2;ratioP2
10387;SDS011;5240;51.128;4.566;2023-04-01T00:01:12;8.55;;;2.38;;
10387;SDS011;5240;51.128;4.566;2023-04-01T00:03:40;5.35;;;2.10;;
10387;SDS011;5240;51.128;4.566;2023-04-01T00:06:07;6.28;;;2.47;;
10387;SDS011;5240;51.128;4.566;2023-04-01T00:08:35;7.72;;;2.65;;
10387;SDS011;5240;51.128;4.566;2023-04-01T00:11:03;3.97;;;2.40;;
10387;SDS011;5240;51.128;4.566;2023-04-01T00:13:30;7.65;;;2.60;;
10387;SDS011;5240;51.128;4.566;2023-04-01T00:15:58;6.00;;;2.65;;
10387;SDS011;5240;51.128;4.566;2023-04-01T00:18:26;6.22;;;2.90;;
10387;SDS011;5240;51.128;4.566;2023-04-01T00:20:53;7.60;;;3.25;;
10387;SDS011;5240;51.128;4.566;2023-04-01T00:23:21;7.47;;;3.08;;
10387;SDS011;5240;51.128;4.566;2023-04-01T00:25:48;7.82;;;3.08;;
10387;SDS011;5240;51.128;4.566;2023-04-01T00:28:17;7.97;;;3.50;;
10387;SDS011;5240;51.128;4.566;2023-04-01T00:30:46;8.15;;;4.10;;
10387;SDS011;5240;51.128;4.566;2023-04-01T00:33:13;7.88;;;3.90;;
10387;SDS011;5240;51.128;4.566;2023-04-01T00:35:40;8.50;;;3.42;;
10387;SDS011;5240;51.128;4.566;2023-04-01T00:38:07;8.43;;;3.08;;
10387;SDS011;5240;51.128;4.566;2023-04-01T00:40:37;9.18;;;3.85;;
10387;SDS011;5240;51.128;4.566;2023-04-01T00:43:09;8.05;;;3.65;;
10387;SDS011;5240;51.128;4.566;2023-04-01T00:45:40;8.77;;;3.40;;
10387;SDS011;5240;51.128;4.566;2023-04-01T00:48:09;7.97;;;4.25;;
10387;SDS011;5240;51.128;4.566;2023-04-01T00:50:39;8.57;;;4.10;;
10387;SDS011;5240;51.128;4.566;2023-04-01T00:53:09;6.05;;;4.50;;
10387;SDS011;5240;51.128;4.566;2023-04-01T00:55:39;7.88;;;5.03;;
10387;SDS011;5240;51.128;4.566;2023-04-01T00:58:11;8.95;;;5.22;;
10387;SDS011;5240;51.128;4.566;2023-04-01T01:00:42;9.85;;;5.35;;
10387;SDS011;5240;51.128;4.566;2023-04-01T01:03:11;9.75;;;5.80;;
10387;SDS011;5240;51.128;4.566;2023-04-01T01:05:44;12.85;;;6.18;;
10387;SDS011;5240;51.128;4.566;2023-04-01T01:08:23;11.50;;;6.00;;
10387;SDS011;5240;51.128;4.566;2023-04-01T01:10:56;11.10;;;6.28;;
10387;SDS011;5240;51.128;4.566;2023-04-01T01:13:24;8.75;;;5.90;;
10387;SDS011;5240;51.128;4.566;2023-04-01T01:16:03;11.80;;;6.47;;
10387;SDS011;5240;51.128;4.566;2023-04-01T01:18:35;11.88;;;6.10;;
10387;SDS011;5240;51.128;4.566;2023-04-01T01:24:17;11.82;;;6.28;;
10387;SDS011;5240;51.128;4.566;2023-04-01T01:27:04;11.20;;;6.47;;
10387;SDS011;5240;51.128;4.566;2023-04-01T01:29:43;7.75;;;6.10;;
10387;SDS011;5240;51.128;4.566;2023-04-01T01:35:23;9.23;;;6.70;;
10387;SDS011;5240;51.128;4.566;2023-04-01T01:37:58;10.27;;;6.45;;
10387;SDS011;5240;51.128;4.566;2023-04-01T01:40:28;12.07;;;6.30;;
10387;SDS011;5240;51.128;4.566;2023-04-01T01:42:59;9.57;;;6.47;;
10387;SDS011;5240;51.128;4.566;2023-04-01T01:45:30;10.43;;;6.65;;
10387;SDS011;5240;51.128;4.566;2023-04-01T01:48:00;8.27;;;6.30;;
10387;SDS011;5240;51.128;4.566;2023-04-01T01:50:31;12.23;;;6.78;;
10387;SDS011;5240;51.128;4.566;2023-04-01T01:53:01;9.32;;;6.60;;
10387;SDS011;5240;51.128;4.566;2023-04-01T01:55:30;10.63;;;6.38;;
10387;SDS011;5240;51.128;4.566;2023-04-01T01:57:59;7.75;;;6.38;;
10387;SDS011;5240;51.128;4.566;2023-04-01T02:00:31;8.77;;;6.13;;
10387;SDS011;5240;51.128;4.566;2023-04-01T02:02:59;8.60;;;5.97;;
10387;SDS011;5240;51.128;4.566;2023-04-01T02:05:27;12.40;;;5.65;;
10387;SDS011;5240;51.128;4.566;2023-04-01T02:08:00;8.48;;;5.13;;
10387;SDS011;5240;51.128;4.566;2023-04-01T02:10:30;7.68;;;4.85;;
10387;SDS011;5240;51.128;4.566;2023-04-01T02:13:01;9.70;;;4.70;;
10387;SDS011;5240;51.128;4.566;2023-04-01T02:15:34;11.48;;;5.95;;
10387;SDS011;5240;51.128;4.566;2023-04-01T02:18:08;6.25;;;5.22;;
10387;SDS011;5240;51.128;4.566;2023-04-01T02:20:36;7.75;;;4.70;;
10387;SDS011;5240;51.128;4.566;2023-04-01T02:23:07;8.82;;;5.50;;
10387;SDS011;5240;51.128;4.566;2023-04-01T02:25:37;9.43;;;4.95;;
10387;SDS011;5240;51.128;4.566;2023-04-01T02:28:06;6.47;;;4.88;;
10387;SDS011;5240;51.128;4.566;2023-04-01T02:30:36;7.57;;;4.55;;
10387;SDS011;5240;51.128;4.566;2023-04-01T02:33:05;6.85;;;4.35;;
10387;SDS011;5240;51.128;4.566;2023-04-01T02:35:33;5.20;;;4.70;;
10387;SDS011;5240;51.128;4.566;2023-04-01T02:38:01;6.38;;;4.75;;
10387;SDS011;5240;51.128;4.566;2023-04-01T02:40:39;9.85;;;5.45;;
10387;SDS011;5240;51.128;4.566;2023-04-01T02:43:08;10.07;;;5.60;;
10387;SDS011;5240;51.128;4.566;2023-04-01T02:45:35;10.45;;;5.40;;
10387;SDS011;5240;51.128;4.566;2023-04-01T02:48:02;6.40;;;4.80;;
10387;SDS011;5240;51.128;4.566;2023-04-01T02:50:30;7.85;;;5.03;;
10387;SDS011;5240;51.128;4.566;2023-04-01T02:52:57;5.50;;;4.65;;
10387;SDS011;5240;51.128;4.566;2023-04-01T02:55:24;8.63;;;4.50;;
10387;SDS011;5240;51.128;4.566;2023-04-01T02:57:52;7.45;;;4.28;;
10387;SDS011;5240;51.128;4.566;2023-04-01T03:00:19;7.38;;;4.35;;
10387;SDS011;5240;51.128;4.566;2023-04-01T03:02:46;4.78;;;3.92;;
10387;SDS011;5240;51.128;4.566;2023-04-01T03:05:13;5.60;;;4.47;;
10387;SDS011;5240;51.128;4.566;2023-04-01T03:07:40;6.30;;;4.10;;
10387;SDS011;5240;51.128;4.566;2023-04-01T03:10:08;7.00;;;5.40;;
10387;SDS011;5240;51.128;4.566;2023-04-01T03:12:35;6.03;;;4.35;;
10387;SDS011;5240;51.128;4.566;2023-04-01T03:15:04;5.15;;;4.65;;
10387;SDS011;5240;51.128;4.566;2023-04-01T03:17:32;6.03;;;4.18;;
10387;SDS011;5240;51.128;4.566;2023-04-01T03:19:59;4.95;;;4.47;;
10387;SDS011;5240;51.128;4.566;2023-04-01T03:22:27;3.97;;;3.60;;
10387;SDS011;5240;51.128;4.566;2023-04-01T03:24:54;4.47;;;4.03;;
10387;SDS011;5240;51.128;4.566;2023-04-01T03:27:21;4.60;;;4.20;;
10387;SDS011;5240;51.128;4.566;2023-04-01T03:29:48;4.82;;;3.90;;
10387;SDS011;5240;51.128;4.566;2023-04-01T03:32:16;5.95;;;4.13;;
10387;SDS011;5240;51.128;4.566;2023-04-01T03:34:43;5.28;;;4.43;;
10387;SDS011;5240;51.128;4.566;2023-04-01T03:37:10;4.70;;;4.20;;
10387;SDS011;5240;51.128;4.566;2023-04-01T03:39:38;5.55;;;4.70;;
10387;SDS011;5240;51.128;4.566;2023-04-01T03:42:05;5.32;;;4.22;;
10387;SDS011;5240;51.128;4.566;2023-04-01T03:44:32;4.60;;;3.90;;
10387;SDS011;5240;51.128;4.566;2023-04-01T03:47:00;4.82;;;4.30;;
10387;SDS011;5240;51.128;4.566;2023-04-01T03:49:29;5.00;;;4.15;;
10387;SDS011;5240;51.128;4.566;2023-04-01T03:51:57;5.05;;;4.00;;
10387;SDS011;5240;51.128;4.566;2023-04-01T03:54:24;4.28;;;3.40;;
10387;SDS011;5240;51.128;4.566;2023-04-01T03:56:51;4.45;;;3.92;;
10387;SDS011;5240;51.128;4.566;2023-04-01T03:59:20;4.80;;;4.18;;
10387;SDS011;5240;51.128;4.566;2023-04-01T04:01:47;5.43;;;4.18;;
10387;SDS011;5240;51.128;4.566;2023-04-01T04:04:14;7.03;;;4.57;;
10387;SDS011;5240;51.128;4.566;2023-04-01T04:06:42;10.15;;;4.80;;
10387;SDS011;5240;51.128;4.566;2023-04-01T04:09:09;5.47;;;4.60;;
10387;SDS011;5240;51.128;4.566;2023-04-01T04:11:36;5.65;;;5.07;;
10387;SDS011;5240;51.128;4.566;2023-04-01T04:14:03;6.70;;;5.70;;
10387;SDS011;5240;51.128;4.566;2023-04-01T04:16:30;7.03;;;5.53;;
10387;SDS011;5240;51.128;4.566;2023-04-01T04:18:57;6.57;;;5.68;;
10387;SDS011;5240;51.128;4.566;2023-04-01T04:21:24;7.15;;;6.18;;
10387;SDS011;5240;51.128;4.566;2023-04-01T04:23:53;12.02;;;7.00;;
10387;SDS011;5240;51.128;4.566;2023-04-01T04:26:20;9.85;;;7.13;;
10387;SDS011;5240;51.128;4.566;2023-04-01T04:28:47;9.20;;;7.05;;
10387;SDS011;5240;51.128;4.566;2023-04-01T04:31:17;8.07;;;6.70;;
10387;SDS011;5240;51.128;4.566;2023-04-01T04:33:46;7.95;;;6.53;;
10387;SDS011;5240;51.128;4.566;2023-04-01T04:36:13;9.57;;;6.93;;
10387;SDS011;5240;51.128;4.566;2023-04-01T04:38:40;8.98;;;6.80;;
10387;SDS011;5240;51.128;4.566;2023-04-01T04:41:09;9.70;;;7.05;;
10387;SDS011;5240;51.128;4.566;2023-04-01T04:43:37;8.77;;;6.78;;
10387;SDS011;5240;51.128;4.566;2023-04-01T04:48:32;9.80;;;6.97;;
10387;SDS011;5240;51.128;4.566;2023-04-01T04:50:59;10.82;;;6.32;;
10387;SDS011;5240;51.128;4.566;2023-04-01T04:53:27;7.72;;;6.05;;
10387;SDS011;5240;51.128;4.566;2023-04-01T04:55:54;7.78;;;5.30;;
10387;SDS011;5240;51.128;4.566;2023-04-01T04:58:22;7.05;;;5.40;;
10387;SDS011;5240;51.128;4.566;2023-04-01T05:00:49;7.40;;;5.72;;
10387;SDS011;5240;51.128;4.566;2023-04-01T05:03:16;7.68;;;5.80;;
10387;SDS011;5240;51.128;4.566;2023-04-01T05:05:50;8.52;;;6.05;;
10387;SDS011;5240;51.128;4.566;2023-04-01T05:08:19;6.60;;;5.72;;
10387;SDS011;5240;51.128;4.566;2023-04-01T05:10:46;7.38;;;5.93;;
10387;SDS011;5240;51.128;4.566;2023-04-01T05:13:13;7.43;;;5.13;;
10387;SDS011;5240;51.128;4.566;2023-04-01T05:15:42;6.97;;;5.05;;
10387;SDS011;5240;51.128;4.566;2023-04-01T05:18:09;5.95;;;4.68;;
10387;SDS011;5240;51.128;4.566;2023-04-01T05:20:36;7.10;;;4.97;;
10387;SDS011;5240;51.128;4.566;2023-04-01T05:23:03;5.28;;;4.00;;
10387;SDS011;5240;51.128;4.566;2023-04-01T05:25:30;6.57;;;3.88;;
10387;SDS011;5240;51.128;4.566;2023-04-01T05:27:57;8.90;;;7.55;;
10387;SDS011;5240;51.128;4.566;2023-04-01T05:30:24;5.93;;;4.68;;
10387;SDS011;5240;51.128;4.566;2023-04-01T05:32:52;6.53;;;5.13;;
10387;SDS011;5240;51.128;4.566;2023-04-01T05:35:20;4.20;;;3.80;;
10387;SDS011;5240;51.128;4.566;2023-04-01T05:37:47;3.35;;;3.05;;
10387;SDS011;5240;51.128;4.566;2023-04-01T05:40:14;3.50;;;3.20;;
10387;SDS011;5240;51.128;4.566;2023-04-01T05:42:41;4.45;;;3.45;;
10387;SDS011;5240;51.128;4.566;2023-04-01T05:45:08;3.30;;;3.00;;
10387;SDS011;5240;51.128;4.566;2023-04-01T05:47:36;4.45;;;3.47;;
10387;SDS011;5240;51.128;4.566;2023-04-01T05:50:04;4.90;;;3.38;;
10387;SDS011;5240;51.128;4.566;2023-04-01T05:52:32;4.35;;;3.22;;
10387;SDS011;5240;51.128;4.566;2023-04-01T05:54:59;3.97;;;3.30;;
10387;SDS011;5240;51.128;4.566;2023-04-01T05:57:26;3.88;;;3.47;;
10387;SDS011;5240;51.128;4.566;2023-04-01T05:59:53;4.28;;;3.80;;
10387;SDS011;5240;51.128;4.566;2023-04-01T06:02:20;5.20;;;3.90;;
10387;SDS011;5240;51.128;4.566;2023-04-01T06:04:47;6.13;;;3.97;;
10387;SDS011;5240;51.128;4.566;2023-04-01T06:07:15;5.20;;;4.05;;
10387;SDS011;5240;51.128;4.566;2023-04-01T06:09:44;4.13;;;3.22;;
10387;SDS011;5240;51.128;4.566;2023-04-01T06:12:29;3.97;;;3.10;;
10387;SDS011;5240;51.128;4.566;2023-04-01T06:15:20;5.20;;;3.40;;
10387;SDS011;5240;51.128;4.566;2023-04-01T06:18:03;2.67;;;2.47;;
10387;SDS011;5240;51.128;4.566;2023-04-01T06:20:50;5.38;;;2.92;;
10387;SDS011;5240;51.128;4.566;2023-04-01T06:23:29;3.58;;;2.65;;
10387;SDS011;5240;51.128;4.566;2023-04-01T06:26:17;3.50;;;2.80;;
10387;SDS011;5240;51.128;4.566;2023-04-01T06:32:06;4.05;;;2.53;;
10387;SDS011;5240;51.128;4.566;2023-04-01T06:35:00;2.67;;;2.47;;
10387;SDS011;5240;51.128;4.566;2023-04-01T06:37:46;5.40;;;2.22;;
10387;SDS011;5240;51.128;4.566;2023-04-01T06:40:43;2.42;;;2.17;;
10387;SDS011;5240;51.128;4.566;2023-04-01T06:43:34;2.40;;;2.20;;
10387;SDS011;5240;51.128;4.566;2023-04-01T06:46:11;2.45;;;2.25;;
10387;SDS011;5240;51.128;4.566;2023-04-01T06:48:56;2.47;;;2.28;;
10387;SDS011;5240;51.128;4.566;2023-04-01T06:51:37;3.80;;;2.30;;
10387;SDS011;5240;51.128;4.566;2023-04-01T06:54:10;2.97;;;2.28;;
10387;SDS011;5240;51.128;4.566;2023-04-01T06:56:43;2.40;;;1.98;;
10387;SDS011;5240;51.128;4.566;2023-04-01T06:59:13;2.00;;;1.90;;
10387;SDS011;5240;51.128;4.566;2023-04-01T07:01:45;2.13;;;1.90;;
10387;SDS011;5240;51.128;4.566;2023-04-01T07:04:16;2.70;;;1.98;;
10387;SDS011;5240;51.128;4.566;2023-04-01T07:06:48;2.92;;;2.20;;
10387;SDS011;5240;51.128;4.566;2023-04-01T07:09:20;1.95;;;1.80;;
10387;SDS011;5240;51.128;4.566;2023-04-01T07:11:52;3.97;;;2.10;;
10387;SDS011;5240;51.128;4.566;2023-04-01T07:14:22;2.30;;;2.10;;
10387;SDS011;5240;51.128;4.566;2023-04-01T07:16:54;2.25;;;2.05;;
10387;SDS011;5240;51.128;4.566;2023-04-01T07:19:27;2.83;;;2.13;;
10387;SDS011;5240;51.128;4.566;2023-04-01T07:21:58;1.85;;;1.73;;
10387;SDS011;5240;51.128;4.566;2023-04-01T07:24:31;6.38;;;4.05;;
10387;SDS011;5240;51.128;4.566;2023-04-01T07:27:02;2.28;;;2.00;;
10387;SDS011;5240;51.128;4.566;2023-04-01T07:29:29;2.38;;;1.85;;
10387;SDS011;5240;51.128;4.566;2023-04-01T07:32:01;3.70;;;2.00;;
10387;SDS011;5240;51.128;4.566;2023-04-01T07:34:55;2.85;;;2.05;;
10387;SDS011;5240;51.128;4.566;2023-04-01T07:37:30;2.67;;;1.90;;
10387;SDS011;5240;51.128;4.566;2023-04-01T07:40:08;2.10;;;1.90;;
10387;SDS011;5240;51.128;4.566;2023-04-01T07:42:50;2.50;;;2.25;;
10387;SDS011;5240;51.128;4.566;2023-04-01T07:45:29;2.38;;;2.15;;
10387;SDS011;5240;51.128;4.566;2023-04-01T07:48:09;2.30;;;2.10;;
10387;SDS011;5240;51.128;4.566;2023-04-01T07:50:46;2.50;;;2.30;;
10387;SDS011;5240;51.128;4.566;2023-04-01T07:53:21;3.00;;;2.40;;
10387;SDS011;5240;51.128;4.566;2023-04-01T07:55:58;2.80;;;2.50;;
10387;SDS011;5240;51.128;4.566;2023-04-01T07:58:34;2.50;;;2.30;;
10387;SDS011;5240;51.128;4.566;2023-04-01T08:01:11;2.83;;;1.90;;
10387;SDS011;5240;51.128;4.566;2023-04-01T08:03:53;2.97;;;2.20;;
10387;SDS011;5240;51.128;4.566;2023-04-01T08:06:41;3.60;;;3.00;;
10387;SDS011;5240;51.128;4.566;2023-04-01T08:09:15;3.13;;;2.33;;
10387;SDS011;5240;51.128;4.566;2023-04-01T08:11:52;4.00;;;2.70;;
10387;SDS011;5240;51.128;4.566;2023-04-01T08:14:29;3.30;;;2.90;;
10387;SDS011;5240;51.128;4.566;2023-04-01T08:17:03;3.55;;;2.83;;
10387;SDS011;5240;51.128;4.566;2023-04-01T08:19:40;3.92;;;3.22;;
10387;SDS011;5240;51.128;4.566;2023-04-01T08:22:22;2.80;;;2.58;;
10387;SDS011;5240;51.128;4.566;2023-04-01T08:24:53;3.13;;;2.50;;
10387;SDS011;5240;51.128;4.566;2023-04-01T08:27:26;3.28;;;2.35;;
10387;SDS011;5240;51.128;4.566;2023-04-01T08:30:00;2.60;;;2.40;;
10387;SDS011;5240;51.128;4.566;2023-04-01T08:32:32;2.90;;;2.10;;
10387;SDS011;5240;51.128;4.566;2023-04-01T08:35:06;2.15;;;1.95;;
10387;SDS011;5240;51.128;4.566;2023-04-01T08:37:36;2.13;;;1.90;;
10387;SDS011;5240;51.128;4.566;2023-04-01T08:40:13;1.92;;;1.80;;
10387;SDS011;5240;51.128;4.566;2023-04-01T08:43:02;2.45;;;1.50;;
10387;SDS011;5240;51.128;4.566;2023-04-01T08:45:42;1.65;;;1.55;;
10387;SDS011;5240;51.128;4.566;2023-04-01T08:48:26;1.70;;;1.60;;
10387;SDS011;5240;51.128;4.566;2023-04-01T08:56:56;2.17;;;1.83;;
10387;SDS011;5240;51.128;4.566;2023-04-01T08:59:33;1.92;;;1.73;;
10387;SDS011;5240;51.128;4.566;2023-04-01T09:02:25;1.80;;;1.70;;
10387;SDS011;5240;51.128;4.566;2023-04-01T09:08:20;2.50;;;2.30;;
10387;SDS011;5240;51.128;4.566;2023-04-01T09:11:03;2.83;;;2.55;;
10387;SDS011;5240;51.128;4.566;2023-04-01T09:13:39;2.53;;;2.33;;
10387;SDS011;5240;51.128;4.566;2023-04-01T09:16:35;2.83;;;2.63;;
10387;SDS011;5240;51.128;4.566;2023-04-01T09:19:26;3.60;;;2.70;;
10387;SDS011;5240;51.128;4.566;2023-04-01T09:22:15;3.30;;;3.00;;
10387;SDS011;5240;51.128;4.566;2023-04-01T09:25:03;3.60;;;3.30;;
10387;SDS011;5240;51.128;4.566;2023-04-01T09:27:43;3.90;;;3.60;;
10387;SDS011;5240;51.128;4.566;2023-04-01T09:30:24;4.15;;;3.25;;
10387;SDS011;5240;51.128;4.566;2023-04-01T09:36:14;3.60;;;3.30;;
10387;SDS011;5240;51.128;4.566;2023-04-01T09:38:56;4.20;;;3.90;;
10387;SDS011;5240;51.128;4.566;2023-04-01T09:41:29;4.20;;;3.90;;
10387;SDS011;5240;51.128;4.566;2023-04-01T09:44:01;4.30;;;4.00;;
10387;SDS011;5240;51.128;4.566;2023-04-01T09:46:34;4.85;;;4.40;;
10387;SDS011;5240;51.128;4.566;2023-04-01T09:49:30;4.97;;;4.57;;
10387;SDS011;5240;51.128;4.566;2023-04-01T09:52:26;5.28;;;4.60;;
10387;SDS011;5240;51.128;4.566;2023-04-01T09:55:11;5.30;;;4.90;;
10387;SDS011;5240;51.128;4.566;2023-04-01T10:01:02;3.58;;;3.28;;
10387;SDS011;5240;51.128;4.566;2023-04-01T10:04:07;2.90;;;2.70;;
10387;SDS011;5240;51.128;4.566;2023-04-01T10:16:25;2.42;;;2.22;;
10387;SDS011;5240;51.128;4.566;2023-04-01T10:28:06;4.57;;;3.15;;
10387;SDS011;5240;51.128;4.566;2023-04-01T10:34:08;5.50;;;3.17;;
10387;SDS011;5240;51.128;4.566;2023-04-01T10:36:54;4.53;;;3.47;;
10387;SDS011;5240;51.128;4.566;2023-04-01T10:42:41;4.10;;;2.95;;
10387;SDS011;5240;51.128;4.566;2023-04-01T10:48:40;4.65;;;3.78;;
10387;SDS011;5240;51.128;4.566;2023-04-01T10:51:44;5.68;;;3.90;;
10387;SDS011;5240;51.128;4.566;2023-04-01T10:54:40;4.30;;;3.40;;
10387;SDS011;5240;51.128;4.566;2023-04-01T10:57:17;4.57;;;3.55;;
10387;SDS011;5240;51.128;4.566;2023-04-01T11:09:31;2.40;;;2.13;;
10387;SDS011;5240;51.128;4.566;2023-04-01T11:12:39;2.60;;;1.90;;
10387;SDS011;5240;51.128;4.566;2023-04-01T11:15:28;3.10;;;2.17;;
10387;SDS011;5240;51.128;4.566;2023-04-01T11:24:20;3.78;;;2.45;;
10387;SDS011;5240;51.128;4.566;2023-04-01T11:27:02;4.63;;;2.92;;
10387;SDS011;5240;51.128;4.566;2023-04-01T11:29:51;5.50;;;2.90;;
10387;SDS011;5240;51.128;4.566;2023-04-01T11:32:36;6.18;;;3.38;;
10387;SDS011;5240;51.128;4.566;2023-04-01T11:35:18;5.78;;;3.35;;
10387;SDS011;5240;51.128;4.566;2023-04-01T11:38:01;5.32;;;3.20;;
10387;SDS011;5240;51.128;4.566;2023-04-01T11:40:37;5.45;;;3.55;;
10387;SDS011;5240;51.128;4.566;2023-04-01T11:43:14;5.55;;;3.33;;
10387;SDS011;5240;51.128;4.566;2023-04-01T11:45:49;7.47;;;3.40;;
10387;SDS011;5240;51.128;4.566;2023-04-01T11:48:27;7.35;;;3.85;;
10387;SDS011;5240;51.128;4.566;2023-04-01T11:51:15;4.18;;;3.45;;
10387;SDS011;5240;51.128;4.566;2023-04-01T11:54:03;4.72;;;3.25;;
10387;SDS011;5240;51.128;4.566;2023-04-01T11:56:43;4.55;;;3.30;;
10387;SDS011;5240;51.128;4.566;2023-04-01T11:59:29;6.38;;;3.42;;
10387;SDS011;5240;51.128;4.566;2023-04-01T12:02:20;4.38;;;2.72;;
10387;SDS011;5240;51.128;4.566;2023-04-01T12:08:02;4.82;;;3.15;;
10387;SDS011;5240;51.128;4.566;2023-04-01T12:10:38;4.80;;;3.67;;
10387;SDS011;5240;51.128;4.566;2023-04-01T12:13:14;5.78;;;4.10;;
10387;SDS011;5240;51.128;4.566;2023-04-01T12:16:07;5.20;;;3.67;;
10387;SDS011;5240;51.128;4.566;2023-04-01T12:18:48;6.15;;;3.25;;
10387;SDS011;5240;51.128;4.566;2023-04-01T12:21:22;3.58;;;2.80;;
10387;SDS011;5240;51.128;4.566;2023-04-01T12:30:12;3.40;;;2.60;;
10387;SDS011;5240;51.128;4.566;2023-04-01T12:32:53;5.45;;;3.58;;
10387;SDS011;5240;51.128;4.566;2023-04-01T12:35:30;5.30;;;2.90;;
10387;SDS011;5240;51.128;4.566;2023-04-01T12:38:08;6.03;;;3.35;;
10387;SDS011;5240;51.128;4.566;2023-04-01T12:40:48;5.20;;;3.22;;
10387;SDS011;5240;51.128;4.566;2023-04-01T12:43:45;4.40;;;3.40;;
10387;SDS011;5240;51.128;4.566;2023-04-01T12:46:26;4.30;;;3.08;;
10387;SDS011;5240;51.128;4.566;2023-04-01T12:49:04;4.50;;;2.90;;
10387;SDS011;5240;51.128;4.566;2023-04-01T12:51:55;3.33;;;2.35;;
10387;SDS011;5240;51.128;4.566;2023-04-01T12:57:44;2.40;;;1.70;;
10387;SDS011;5240;51.128;4.566;2023-04-01T13:00:46;3.97;;;2.20;;
10387;SDS011;5240;51.128;4.566;2023-04-01T13:03:34;4.13;;;2.30;;
10387;SDS011;5240;51.128;4.566;2023-04-01T13:06:21;3.45;;;2.10;;
10387;SDS011;5240;51.128;4.566;2023-04-01T13:09:03;2.80;;;2.50;;
10387;SDS011;5240;51.128;4.566;2023-04-01T13:11:45;4.53;;;2.60;;
10387;SDS011;5240;51.128;4.566;2023-04-01T13:14:31;2.92;;;2.63;;
10387;SDS011;5240;51.128;4.566;2023-04-01T13:17:12;2.67;;;2.45;;
10387;SDS011;5240;51.128;4.566;2023-04-01T13:19:47;2.90;;;2.58;;
10387;SDS011;5240;51.128;4.566;2023-04-01T13:22:23;2.88;;;2.50;;
10387;SDS011;5240;51.128;4.566;2023-04-01T13:24:57;2.70;;;2.50;;
10387;SDS011;5240;51.128;4.566;2023-04-01T13:27:30;3.65;;;2.80;;
10387;SDS011;5240;51.128;4.566;2023-04-01T13:30:10;3.72;;;2.90;;
10387;SDS011;5240;51.128;4.566;2023-04-01T13:32:50;3.67;;;3.38;;
10387;SDS011;5240;51.128;4.566;2023-04-01T13:35:27;4.85;;;4.18;;
10387;SDS011;5240;51.128;4.566;2023-04-01T13:38:08;4.43;;;4.05;;
10387;SDS011;5240;51.128;4.566;2023-04-01T13:40:51;4.10;;;3.78;;
10387;SDS011;5240;51.128;4.566;2023-04-01T13:43:25;5.22;;;4.70;;
10387;SDS011;5240;51.128;4.566;2023-04-01T13:46:09;5.13;;;4.60;;
10387;SDS011;5240;51.128;4.566;2023-04-01T13:48:56;5.28;;;4.65;;
10387;SDS011;5240;51.128;4.566;2023-04-01T13:54:53;4.57;;;4.18;;
10387;SDS011;5240;51.128;4.566;2023-04-01T14:03:32;5.38;;;4.82;;
10387;SDS011;5240;51.128;4.566;2023-04-01T14:06:13;5.70;;;5.20;;
10387;SDS011;5240;51.128;4.566;2023-04-01T14:08:53;5.72;;;5.32;;
10387;SDS011;5240;51.128;4.566;2023-04-01T14:11:44;6.70;;;6.10;;
10387;SDS011;5240;51.128;4.566;2023-04-01T14:14:21;6.80;;;6.10;;
10387;SDS011;5240;51.128;4.566;2023-04-01T14:17:04;7.88;;;6.65;;
10387;SDS011;5240;51.128;4.566;2023-04-01T14:19:53;7.65;;;6.88;;
10387;SDS011;5240;51.128;4.566;2023-04-01T14:22:33;7.70;;;6.38;;
10387;SDS011;5240;51.128;4.566;2023-04-01T14:28:10;5.78;;;5.30;;
10387;SDS011;5240;51.128;4.566;2023-04-01T14:30:53;6.45;;;5.80;;
10387;SDS011;5240;51.128;4.566;2023-04-01T14:33:42;5.72;;;5.22;;
10387;SDS011;5240;51.128;4.566;2023-04-01T14:36:25;4.82;;;4.35;;
10387;SDS011;5240;51.128;4.566;2023-04-01T14:42:19;5.28;;;4.78;;
10387;SDS011;5240;51.128;4.566;2023-04-01T14:45:09;5.25;;;4.78;;
10387;SDS011;5240;51.128;4.566;2023-04-01T14:47:58;4.57;;;4.18;;
10387;SDS011;5240;51.128;4.566;2023-04-01T14:50:40;4.40;;;4.00;;
10387;SDS011;5240;51.128;4.566;2023-04-01T14:53:11;4.03;;;3.72;;
10387;SDS011;5240;51.128;4.566;2023-04-01T14:55:51;3.13;;;2.45;;
10387;SDS011;5240;51.128;4.566;2023-04-01T14:58:20;3.33;;;2.10;;
10387;SDS011;5240;51.128;4.566;2023-04-01T15:00:54;2.70;;;2.50;;
10387;SDS011;5240;51.128;4.566;2023-04-01T15:03:33;3.00;;;2.70;;
10387;SDS011;5240;51.128;4.566;2023-04-01T15:06:13;3.97;;;2.80;;
10387;SDS011;5240;51.128;4.566;2023-04-01T15:09:01;3.67;;;2.25;;
10387;SDS011;5240;51.128;4.566;2023-04-01T15:11:37;2.70;;;2.40;;
10387;SDS011;5240;51.128;4.566;2023-04-01T15:14:22;4.50;;;2.80;;
10387;SDS011;5240;51.128;4.566;2023-04-01T15:20:17;4.45;;;2.53;;
10387;SDS011;5240;51.128;4.566;2023-04-01T15:26:18;2.47;;;1.80;;
10387;SDS011;5240;51.128;4.566;2023-04-01T15:28:59;2.85;;;2.10;;
10387;SDS011;5240;51.128;4.566;2023-04-01T15:31:42;2.78;;;2.10;;
10387;SDS011;5240;51.128;4.566;2023-04-01T15:34:17;2.22;;;2.03;;
10387;SDS011;5240;51.128;4.566;2023-04-01T15:36:56;3.25;;;1.95;;
10387;SDS011;5240;51.128;4.566;2023-04-01T15:39:30;1.63;;;1.38;;
10387;SDS011;5240;51.128;4.566;2023-04-01T15:42:19;1.60;;;1.50;;
10387;SDS011;5240;51.128;4.566;2023-04-01T15:45:00;1.83;;;1.73;;
10387;SDS011;5240;51.128;4.566;2023-04-01T15:47:41;2.58;;;2.08;;
10387;SDS011;5240;51.128;4.566;2023-04-01T15:50:23;3.25;;;2.35;;
10387;SDS011;5240;51.128;4.566;2023-04-01T15:53:10;3.63;;;2.38;;
10387;SDS011;5240;51.128;4.566;2023-04-01T15:55:48;2.20;;;2.00;;
10387;SDS011;5240;51.128;4.566;2023-04-01T15:58:26;2.65;;;2.30;;
10387;SDS011;5240;51.128;4.566;2023-04-01T16:01:04;2.28;;;2.08;;
10387;SDS011;5240;51.128;4.566;2023-04-01T16:03:44;2.00;;;1.90;;
10387;SDS011;5240;51.128;4.566;2023-04-01T16:06:30;3.03;;;2.33;;
10387;SDS011;5240;51.128;4.566;2023-04-01T16:12:11;2.88;;;1.88;;
10387;SDS011;5240;51.128;4.566;2023-04-01T16:14:46;2.25;;;2.05;;
10387;SDS011;5240;51.128;4.566;2023-04-01T16:17:28;2.20;;;2.00;;
10387;SDS011;5240;51.128;4.566;2023-04-01T16:20:13;2.33;;;2.13;;
10387;SDS011;5240;51.128;4.566;2023-04-01T16:22:45;2.97;;;2.67;;
10387;SDS011;5240;51.128;4.566;2023-04-01T16:25:25;3.15;;;2.88;;
10387;SDS011;5240;51.128;4.566;2023-04-01T16:28:01;2.92;;;2.72;;
10387;SDS011;5240;51.128;4.566;2023-04-01T16:30:40;2.30;;;2.10;;
10387;SDS011;5240;51.128;4.566;2023-04-01T16:33:12;2.50;;;2.20;;
10387;SDS011;5240;51.128;4.566;2023-04-01T16:35:47;2.63;;;2.40;;
10387;SDS011;5240;51.128;4.566;2023-04-01T16:38:22;2.83;;;2.60;;
10387;SDS011;5240;51.128;4.566;2023-04-01T16:40:58;3.30;;;3.00;;
10387;SDS011;5240;51.128;4.566;2023-04-01T16:43:38;3.05;;;2.80;;
10387;SDS011;5240;51.128;4.566;2023-04-01T16:46:17;3.55;;;3.25;;
10387;SDS011;5240;51.128;4.566;2023-04-01T16:48:57;4.00;;;3.38;;
10387;SDS011;5240;51.128;4.566;2023-04-01T16:51:26;4.25;;;3.88;;
10387;SDS011;5240;51.128;4.566;2023-04-01T16:54:05;4.60;;;4.15;;
10387;SDS011;5240;51.128;4.566;2023-04-01T16:56:40;4.70;;;3.95;;
10387;SDS011;5240;51.128;4.566;2023-04-01T16:59:15;5.47;;;4.40;;
10387;SDS011;5240;51.128;4.566;2023-04-01T17:01:49;6.50;;;5.70;;
10387;SDS011;5240;51.128;4.566;2023-04-01T17:04:21;5.80;;;5.30;;
10387;SDS011;5240;51.128;4.566;2023-04-01T17:06:58;7.97;;;6.43;;
10387;SDS011;5240;51.128;4.566;2023-04-01T17:12:35;8.55;;;7.18;;
10387;SDS011;5240;51.128;4.566;2023-04-01T17:15:14;8.30;;;7.50;;
10387;SDS011;5240;51.128;4.566;2023-04-01T17:17:49;8.52;;;7.72;;
10387;SDS011;5240;51.128;4.566;2023-04-01T17:20:34;9.35;;;8.45;;
10387;SDS011;5240;51.128;4.566;2023-04-01T17:23:10;9.23;;;8.35;;
10387;SDS011;5240;51.128;4.566;2023-04-01T17:25:47;10.23;;;9.18;;
10387;SDS011;5240;51.128;4.566;2023-04-01T17:28:26;10.85;;;9.75;;
10387;SDS011;5240;51.128;4.566;2023-04-01T17:31:02;11.70;;;10.57;;
10387;SDS011;5240;51.128;4.566;2023-04-01T17:33:45;11.75;;;10.63;;
10387;SDS011;5240;51.128;4.566;2023-04-01T17:36:36;11.07;;;10.02;;
10387;SDS011;5240;51.128;4.566;2023-04-01T17:39:17;11.07;;;9.52;;
10387;SDS011;5240;51.128;4.566;2023-04-01T17:41:53;7.05;;;6.32;;
10387;SDS011;5240;51.128;4.566;2023-04-01T17:44:28;7.00;;;6.30;;